Terminal Aerodrome Forecast
Issued by NWS

Home | Current Version | Previous Version | Text Only | Print | Product List | Glossary On
Versions: 1 2 3 4 5 6 7 8 9 10 11 12 13 14
000
FTUS41 KBTV 231100
TAFPBG
TAF
KPBG 231128Z 2312/2412 33010KT P6SM VCSH OVC029
      TEMPO 2312/2316 OVC035
     FM231600 33012G20KT P6SM VCSH SCT025 OVC035
     FM240000 32014G24KT P6SM VCSH SCT025 OVC035=

USA.gov is the U.S. government's official web portal to all federal, state and local government web resources and services.